sensor_id;sensor_type;location;lat;lon;timestamp;pressure;altitude;pressure_sealevel;temperature;humidity
22440;BME280;11387;51.612;7.210;2023-06-04T00:00:04;101233.00;;;12.22;55.29
22440;BME280;11387;51.612;7.210;2023-06-04T00:02:32;101236.16;;;12.10;56.37
22440;BME280;11387;51.612;7.210;2023-06-04T00:05:01;101232.94;;;12.03;56.99
22440;BME280;11387;51.612;7.210;2023-06-04T00:07:29;101236.97;;;12.11;57.85
22440;BME280;11387;51.612;7.210;2023-06-04T00:09:57;101241.66;;;12.10;58.00
22440;BME280;11387;51.612;7.210;2023-06-04T00:12:27;101236.03;;;11.97;58.84
22440;BME280;11387;51.612;7.210;2023-06-04T00:14:55;101223.44;;;11.96;59.58
22440;BME280;11387;51.612;7.210;2023-06-04T00:17:24;101231.09;;;11.99;59.42
22440;BME280;11387;51.612;7.210;2023-06-04T00:19:52;101222.75;;;11.85;60.49
22440;BME280;11387;51.612;7.210;2023-06-04T00:22:21;101225.03;;;11.78;60.73
22440;BME280;11387;51.612;7.210;2023-06-04T00:24:49;101220.97;;;11.70;61.67
22440;BME280;11387;51.612;7.210;2023-06-04T00:27:18;101216.06;;;11.67;62.17
22440;BME280;11387;51.612;7.210;2023-06-04T00:29:48;101225.97;;;11.63;62.26
22440;BME280;11387;51.612;7.210;2023-06-04T00:32:16;101217.25;;;11.61;62.94
22440;BME280;11387;51.612;7.210;2023-06-04T00:34:49;101225.97;;;11.63;63.28
22440;BME280;11387;51.612;7.210;2023-06-04T00:37:18;101228.28;;;11.56;63.62
22440;BME280;11387;51.612;7.210;2023-06-04T00:39:46;101222.03;;;11.51;64.27
22440;BME280;11387;51.612;7.210;2023-06-04T00:42:15;101228.44;;;11.65;64.11
22440;BME280;11387;51.612;7.210;2023-06-04T00:44:43;101230.34;;;11.64;64.06
22440;BME280;11387;51.612;7.210;2023-06-04T00:47:14;101228.97;;;11.67;64.13
22440;BME280;11387;51.612;7.210;2023-06-04T00:49:43;101226.69;;;11.74;64.16
22440;BME280;11387;51.612;7.210;2023-06-04T00:52:11;101225.97;;;11.63;65.13
22440;BME280;11387;51.612;7.210;2023-06-04T00:54:42;101218.75;;;11.72;64.63
22440;BME280;11387;51.612;7.210;2023-06-04T00:57:10;101225.97;;;11.63;65.09
22440;BME280;11387;51.612;7.210;2023-06-04T00:59:39;101213.69;;;11.61;65.23
22440;BME280;11387;51.612;7.210;2023-06-04T01:02:09;101214.84;;;11.55;65.78
22440;BME280;11387;51.612;7.210;2023-06-04T01:04:42;101217.94;;;11.48;65.72
22440;BME280;11387;51.612;7.210;2023-06-04T01:07:13;101222.34;;;11.44;66.09
22440;BME280;11387;51.612;7.210;2023-06-04T01:09:43;101227.09;;;11.33;66.68
22440;BME280;11387;51.612;7.210;2023-06-04T01:12:12;101223.50;;;11.38;66.78
22440;BME280;11387;51.612;7.210;2023-06-04T01:14:40;101219.03;;;11.47;66.57
22440;BME280;11387;51.612;7.210;2023-06-04T01:17:11;101221.88;;;11.37;66.62
22440;BME280;11387;51.612;7.210;2023-06-04T01:22:38;101218.16;;;11.28;67.42
22440;BME280;11387;51.612;7.210;2023-06-04T01:25:09;101218.22;;;11.18;67.87
22440;BME280;11387;51.612;7.210;2023-06-04T01:27:49;101223.78;;;11.07;68.29
22440;BME280;11387;51.612;7.210;2023-06-04T01:30:21;101215.44;;;10.94;68.87
22440;BME280;11387;51.612;7.210;2023-06-04T01:32:51;101219.00;;;10.94;68.81
22440;BME280;11387;51.612;7.210;2023-06-04T01:35:20;101218.75;;;10.91;69.24
22440;BME280;11387;51.612;7.210;2023-06-04T01:37:50;101221.19;;;10.92;69.26
22440;BME280;11387;51.612;7.210;2023-06-04T01:40:18;101227.47;;;10.98;69.04
22440;BME280;11387;51.612;7.210;2023-06-04T01:42:47;101216.81;;;10.91;69.57
22440;BME280;11387;51.612;7.210;2023-06-04T01:45:15;101220.94;;;10.89;69.37
22440;BME280;11387;51.612;7.210;2023-06-04T01:47:44;101224.03;;;10.77;69.68
22440;BME280;11387;51.612;7.210;2023-06-04T01:50:13;101211.16;;;10.77;69.76
22440;BME280;11387;51.612;7.210;2023-06-04T01:52:41;101210.97;;;10.69;70.15
22440;BME280;11387;51.612;7.210;2023-06-04T01:55:11;101206.06;;;10.66;70.38
22440;BME280;11387;51.612;7.210;2023-06-04T01:57:42;101205.03;;;10.57;70.79
22440;BME280;11387;51.612;7.210;2023-06-04T02:00:11;101206.13;;;10.56;70.93
22440;BME280;11387;51.612;7.210;2023-06-04T02:02:41;101207.25;;;10.55;71.07
22440;BME280;11387;51.612;7.210;2023-06-04T02:05:10;101214.91;;;10.53;71.22
22440;BME280;11387;51.612;7.210;2023-06-04T02:07:38;101211.63;;;10.56;71.00
22440;BME280;11387;51.612;7.210;2023-06-04T02:10:07;101209.94;;;10.60;70.96
22440;BME280;11387;51.612;7.210;2023-06-04T02:12:38;101213.75;;;10.64;70.77
22440;BME280;11387;51.612;7.210;2023-06-04T02:15:09;101222.56;;;10.56;71.20
22440;BME280;11387;51.612;7.210;2023-06-04T02:17:38;101218.22;;;10.50;71.35
22440;BME280;11387;51.612;7.210;2023-06-04T02:20:07;101214.09;;;10.52;71.42
22440;BME280;11387;51.612;7.210;2023-06-04T02:22:37;101217.41;;;10.49;71.42
22440;BME280;11387;51.612;7.210;2023-06-04T02:25:06;101216.56;;;10.49;71.61
22440;BME280;11387;51.612;7.210;2023-06-04T02:27:35;101225.06;;;10.47;71.86
22440;BME280;11387;51.612;7.210;2023-06-04T02:30:06;101218.22;;;10.50;71.74
22440;BME280;11387;51.612;7.210;2023-06-04T02:32:34;101225.88;;;10.48;71.87
22440;BME280;11387;51.612;7.210;2023-06-04T02:35:04;101228.09;;;10.40;72.34
22440;BME280;11387;51.612;7.210;2023-06-04T02:37:33;101229.81;;;10.31;72.67
22440;BME280;11387;51.612;7.210;2023-06-04T02:40:01;101232.03;;;10.29;73.04
22440;BME280;11387;51.612;7.210;2023-06-04T02:42:31;101235.31;;;10.26;72.97
22440;BME280;11387;51.612;7.210;2023-06-04T02:44:59;101228.22;;;10.20;73.32
22440;BME280;11387;51.612;7.210;2023-06-04T02:47:29;101224.13;;;10.12;73.76
22440;BME280;11387;51.612;7.210;2023-06-04T02:49:57;101231.56;;;10.07;74.14
22440;BME280;11387;51.612;7.210;2023-06-04T02:52:26;101233.47;;;10.06;74.08
22440;BME280;11387;51.612;7.210;2023-06-04T02:54:54;101228.22;;;10.15;73.77
22440;BME280;11387;51.612;7.210;2023-06-04T02:57:38;101225.50;;;10.10;73.96
22440;BME280;11387;51.612;7.210;2023-06-04T03:00:08;101230.66;;;10.17;73.88
22440;BME280;11387;51.612;7.210;2023-06-04T03:02:42;101229.59;;;10.12;73.79
22440;BME280;11387;51.612;7.210;2023-06-04T03:05:12;101236.44;;;10.10;73.91
22440;BME280;11387;51.612;7.210;2023-06-04T03:07:41;101236.97;;;10.12;73.64
22440;BME280;11387;51.612;7.210;2023-06-04T03:10:12;101235.69;;;9.99;74.26
22440;BME280;11387;51.612;7.210;2023-06-04T03:12:41;101241.44;;;9.93;74.38
22440;BME280;11387;51.612;7.210;2023-06-04T03:15:29;101240.06;;;9.95;74.74
22440;BME280;11387;51.612;7.210;2023-06-04T03:17:59;101236.56;;;9.79;75.03
22440;BME280;11387;51.612;7.210;2023-06-04T03:20:27;101237.91;;;9.82;75.23
22440;BME280;11387;51.612;7.210;2023-06-04T03:22:55;101234.34;;;9.87;75.05
22440;BME280;11387;51.612;7.210;2023-06-04T03:25:25;101228.41;;;9.74;75.46
22440;BME280;11387;51.612;7.210;2023-06-04T03:27:53;101227.06;;;9.67;75.50
22440;BME280;11387;51.612;7.210;2023-06-04T03:30:23;101235.78;;;9.69;75.88
22440;BME280;11387;51.612;7.210;2023-06-04T03:32:51;101230.88;;;9.61;75.97
22440;BME280;11387;51.612;7.210;2023-06-04T03:35:21;101227.88;;;9.57;76.59
22440;BME280;11387;51.612;7.210;2023-06-04T03:37:49;101228.97;;;9.56;76.79
22440;BME280;11387;51.612;7.210;2023-06-04T03:40:18;101234.72;;;9.55;76.88
22440;BME280;11387;51.612;7.210;2023-06-04T03:42:46;101229.53;;;9.53;76.81
22440;BME280;11387;51.612;7.210;2023-06-04T03:45:15;101230.06;;;9.60;76.39
22440;BME280;11387;51.612;7.210;2023-06-04T03:47:43;101228.97;;;9.61;76.36
22440;BME280;11387;51.612;7.210;2023-06-04T03:50:11;101230.59;;;9.72;76.16
22440;BME280;11387;51.612;7.210;2023-06-04T03:52:41;101235.53;;;9.65;76.34
22440;BME280;11387;51.612;7.210;2023-06-04T03:55:09;101245.91;;;9.68;76.49
22440;BME280;11387;51.612;7.210;2023-06-04T03:57:39;101241.25;;;9.69;76.21
22440;BME280;11387;51.612;7.210;2023-06-04T04:00:08;101240.16;;;9.65;76.51
22440;BME280;11387;51.612;7.210;2023-06-04T04:02:40;101242.06;;;9.69;76.38
22440;BME280;11387;51.612;7.210;2023-06-04T04:05:09;101238.75;;;9.83;76.13
22440;BME280;11387;51.612;7.210;2023-06-04T04:07:39;101240.38;;;9.78;75.84
22440;BME280;11387;51.612;7.210;2023-06-04T04:10:09;101241.47;;;9.83;75.88
22440;BME280;11387;51.612;7.210;2023-06-04T04:12:37;101246.94;;;9.83;75.98
22440;BME280;11387;51.612;7.210;2023-06-04T04:15:07;101238.47;;;9.84;75.91
22440;BME280;11387;51.612;7.210;2023-06-04T04:17:35;101245.81;;;9.94;75.33
22440;BME280;11387;51.612;7.210;2023-06-04T04:20:04;101236.50;;;10.00;75.21
22440;BME280;11387;51.612;7.210;2023-06-04T04:22:33;101242.78;;;10.00;75.12
22440;BME280;11387;51.612;7.210;2023-06-04T04:25:01;101239.78;;;10.02;74.85
22440;BME280;11387;51.612;7.210;2023-06-04T04:27:31;101249.00;;;10.16;74.40
22440;BME280;11387;51.612;7.210;2023-06-04T04:30:02;101242.97;;;10.24;73.84
22440;BME280;11387;51.612;7.210;2023-06-04T04:32:31;101245.13;;;10.32;73.36
22440;BME280;11387;51.612;7.210;2023-06-04T04:35:00;101246.22;;;10.36;73.35
22440;BME280;11387;51.612;7.210;2023-06-04T04:37:28;101241.72;;;10.51;72.33
22440;BME280;11387;51.612;7.210;2023-06-04T04:39:57;101240.31;;;10.58;72.21
22440;BME280;11387;51.612;7.210;2023-06-04T04:42:25;101237.84;;;10.62;71.73
22440;BME280;11387;51.612;7.210;2023-06-04T04:44:55;101236.91;;;10.76;71.33
22440;BME280;11387;51.612;7.210;2023-06-04T04:47:23;101237.44;;;10.78;70.66
22440;BME280;11387;51.612;7.210;2023-06-04T04:49:52;101237.69;;;10.82;70.65
22440;BME280;11387;51.612;7.210;2023-06-04T04:52:20;101240.97;;;10.84;70.80
22440;BME280;11387;51.612;7.210;2023-06-04T04:54:49;101243.91;;;10.93;69.96
22440;BME280;11387;51.612;7.210;2023-06-04T04:57:17;101246.84;;;11.01;69.93
22440;BME280;11387;51.612;7.210;2023-06-04T04:59:46;101249.56;;;11.01;70.26
22440;BME280;11387;51.612;7.210;2023-06-04T05:02:16;101247.34;;;11.08;70.34
22440;BME280;11387;51.612;7.210;2023-06-04T05:04:44;101247.78;;;11.21;69.83
22440;BME280;11387;51.612;7.210;2023-06-04T05:07:13;101245.00;;;11.26;69.40
22440;BME280;11387;51.612;7.210;2023-06-04T05:09:41;101242.16;;;11.36;69.21
22440;BME280;11387;51.612;7.210;2023-06-04T05:12:09;101243.75;;;11.42;68.63
22440;BME280;11387;51.612;7.210;2023-06-04T05:14:38;101251.91;;;11.47;68.40
22440;BME280;11387;51.612;7.210;2023-06-04T05:17:06;101250.19;;;11.56;68.34
22440;BME280;11387;51.612;7.210;2023-06-04T05:19:39;101252.81;;;11.66;67.74
22440;BME280;11387;51.612;7.210;2023-06-04T05:22:07;101250.00;;;11.71;68.16
22440;BME280;11387;51.612;7.210;2023-06-04T05:24:36;101250.34;;;11.94;67.08
22440;BME280;11387;51.612;7.210;2023-06-04T05:27:04;101248.75;;;12.11;65.80
22440;BME280;11387;51.612;7.210;2023-06-04T05:29:33;101259.97;;;12.15;65.76
22440;BME280;11387;51.612;7.210;2023-06-04T05:32:02;101264.06;;;12.18;65.42
22440;BME280;11387;51.612;7.210;2023-06-04T05:34:31;101270.19;;;12.28;65.44
22440;BME280;11387;51.612;7.210;2023-06-04T05:37:05;101263.03;;;12.32;64.90
22440;BME280;11387;51.612;7.210;2023-06-04T05:39:38;101255.34;;;12.53;63.42
22440;BME280;11387;51.612;7.210;2023-06-04T05:42:06;101251.47;;;12.54;62.83
22440;BME280;11387;51.612;7.210;2023-06-04T05:44:35;101248.88;;;12.63;63.35
22440;BME280;11387;51.612;7.210;2023-06-04T05:47:03;101252.38;;;12.68;62.70
22440;BME280;11387;51.612;7.210;2023-06-04T05:49:33;101255.25;;;12.77;62.95
22440;BME280;11387;51.612;7.210;2023-06-04T05:52:02;101256.81;;;12.83;62.34
22440;BME280;11387;51.612;7.210;2023-06-04T05:54:32;101256.31;;;12.81;61.42
22440;BME280;11387;51.612;7.210;2023-06-04T05:57:01;101257.94;;;12.82;60.68
22440;BME280;11387;51.612;7.210;2023-06-04T05:59:29;101263.03;;;12.89;60.32
22440;BME280;11387;51.612;7.210;2023-06-04T06:01:58;101263.25;;;12.92;59.98
22440;BME280;11387;51.612;7.210;2023-06-04T06:04:26;101263.69;;;12.99;59.55
22440;BME280;11387;51.612;7.210;2023-06-04T06:06:55;101267.47;;;13.03;58.84
22440;BME280;11387;51.612;7.210;2023-06-04T06:09:23;101264.56;;;13.13;58.94
22440;BME280;11387;51.612;7.210;2023-06-04T06:11:53;101267.25;;;13.19;59.08
22440;BME280;11387;51.612;7.210;2023-06-04T06:14:21;101274.59;;;13.23;58.81
22440;BME280;11387;51.612;7.210;2023-06-04T06:16:50;101274.59;;;13.23;58.14
22440;BME280;11387;51.612;7.210;2023-06-04T06:19:35;101281.94;;;13.28;58.13
22440;BME280;11387;51.612;7.210;2023-06-04T06:22:03;101274.88;;;13.54;58.22
22440;BME280;11387;51.612;7.210;2023-06-04T06:24:32;101282.53;;;13.57;58.84
22440;BME280;11387;51.612;7.210;2023-06-04T06:27:02;101282.00;;;13.55;59.41
22440;BME280;11387;51.612;7.210;2023-06-04T06:29:31;101281.41;;;13.58;58.87
22440;BME280;11387;51.612;7.210;2023-06-04T06:32:00;101282.88;;;13.69;58.43
22440;BME280;11387;51.612;7.210;2023-06-04T06:34:28;101282.59;;;13.52;57.45
22440;BME280;11387;51.612;7.210;2023-06-04T06:36:57;101286.31;;;13.61;57.44
22440;BME280;11387;51.612;7.210;2023-06-04T06:39:25;101291.50;;;13.63;59.02
22440;BME280;11387;51.612;7.210;2023-06-04T06:41:53;101295.28;;;13.80;59.09
22440;BME280;11387;51.612;7.210;2023-06-04T06:44:23;101297.13;;;13.71;58.26
22440;BME280;11387;51.612;7.210;2023-06-04T06:46:52;101294.28;;;13.90;58.02
22440;BME280;11387;51.612;7.210;2023-06-04T06:49:20;101299.81;;;14.04;58.07
22440;BME280;11387;51.612;7.210;2023-06-04T06:51:49;101294.59;;;14.16;57.46
22440;BME280;11387;51.612;7.210;2023-06-04T06:54:17;101294.50;;;14.35;57.07
22440;BME280;11387;51.612;7.210;2023-06-04T06:56:48;101295.50;;;14.39;56.11
22440;BME280;11387;51.612;7.210;2023-06-04T06:59:17;101299.78;;;14.59;55.16
22440;BME280;11387;51.612;7.210;2023-06-04T07:01:47;101300.19;;;14.66;55.76
22440;BME280;11387;51.612;7.210;2023-06-04T07:04:15;101315.03;;;14.78;56.14
22440;BME280;11387;51.612;7.210;2023-06-04T07:06:45;101303.78;;;14.89;55.69
22440;BME280;11387;51.612;7.210;2023-06-04T07:09:13;101298.09;;;15.07;54.71
22440;BME280;11387;51.612;7.210;2023-06-04T07:11:42;101291.16;;;15.32;51.54
22440;BME280;11387;51.612;7.210;2023-06-04T07:14:10;101300.72;;;15.35;49.92
22440;BME280;11387;51.612;7.210;2023-06-04T07:16:39;101299.41;;;15.55;50.65
22440;BME280;11387;51.612;7.210;2023-06-04T07:19:08;101305.06;;;15.72;50.28
22440;BME280;11387;51.612;7.210;2023-06-04T07:21:37;101307.94;;;15.67;50.78
22440;BME280;11387;51.612;7.210;2023-06-04T07:24:05;101303.34;;;15.85;50.49
22440;BME280;11387;51.612;7.210;2023-06-04T07:26:33;101302.81;;;16.13;50.14
22440;BME280;11387;51.612;7.210;2023-06-04T07:29:02;101301.25;;;16.38;49.92
22440;BME280;11387;51.612;7.210;2023-06-04T07:31:31;101302.44;;;16.63;49.40
22440;BME280;11387;51.612;7.210;2023-06-04T07:33:59;101305.28;;;16.80;49.64
22440;BME280;11387;51.612;7.210;2023-06-04T07:36:29;101303.31;;;17.15;48.79
22440;BME280;11387;51.612;7.210;2023-06-04T07:38:58;101299.53;;;17.46;47.17
22440;BME280;11387;51.612;7.210;2023-06-04T07:41:27;101303.50;;;17.10;47.42
22440;BME280;11387;51.612;7.210;2023-06-04T07:43:55;101306.91;;;17.07;46.83
22440;BME280;11387;51.612;7.210;2023-06-04T07:46:23;101309.34;;;17.00;47.33
22440;BME280;11387;51.612;7.210;2023-06-04T07:48:52;101307.19;;;17.32;46.76
22440;BME280;11387;51.612;7.210;2023-06-04T07:51:20;101310.47;;;17.34;45.70
22440;BME280;11387;51.612;7.210;2023-06-04T07:53:51;101312.25;;;17.21;45.98
22440;BME280;11387;51.612;7.210;2023-06-04T07:56:19;101306.06;;;17.33;46.79
22440;BME280;11387;51.612;7.210;2023-06-04T07:58:47;101313.50;;;17.58;46.97
22440;BME280;11387;51.612;7.210;2023-06-04T08:01:16;101301.25;;;17.76;45.70
22440;BME280;11387;51.612;7.210;2023-06-04T08:03:44;101310.06;;;17.78;44.53
22440;BME280;11387;51.612;7.210;2023-06-04T08:06:13;101312.88;;;18.37;44.09
22440;BME280;11387;51.612;7.210;2023-06-04T08:08:42;101299.63;;;19.35;42.01
22440;BME280;11387;51.612;7.210;2023-06-04T08:11:13;101306.47;;;19.70;41.31
22440;BME280;11387;51.612;7.210;2023-06-04T08:13:42;101310.44;;;20.18;39.69
22440;BME280;11387;51.612;7.210;2023-06-04T08:16:10;101298.81;;;21.57;37.41
22440;BME280;11387;51.612;7.210;2023-06-04T08:18:39;101304.84;;;22.54;36.72
22440;BME280;11387;51.612;7.210;2023-06-04T08:21:08;101300.66;;;23.37;33.60
22440;BME280;11387;51.612;7.210;2023-06-04T08:23:37;101301.13;;;24.04;33.34
22440;BME280;11387;51.612;7.210;2023-06-04T08:26:06;101302.03;;;24.34;32.00
22440;BME280;11387;51.612;7.210;2023-06-04T08:28:36;101299.69;;;23.91;32.86
22440;BME280;11387;51.612;7.210;2023-06-04T08:31:06;101302.28;;;24.78;31.08
22440;BME280;11387;51.612;7.210;2023-06-04T08:33:35;101303.53;;;25.81;29.52
22440;BME280;11387;51.612;7.210;2023-06-04T08:36:03;101312.75;;;26.26;28.97
22440;BME280;11387;51.612;7.210;2023-06-04T08:38:32;101313.00;;;25.66;29.93
22440;BME280;11387;51.612;7.210;2023-06-04T08:41:02;101314.69;;;26.18;28.25
22440;BME280;11387;51.612;7.210;2023-06-04T08:43:36;101311.75;;;26.04;26.55
22440;BME280;11387;51.612;7.210;2023-06-04T08:46:07;101312.25;;;26.68;26.17
22440;BME280;11387;51.612;7.210;2023-06-04T08:48:36;101309.06;;;27.60;25.02
22440;BME280;11387;51.612;7.210;2023-06-04T08:51:15;101316.50;;;26.44;25.81
22440;BME280;11387;51.612;7.210;2023-06-04T08:53:43;101310.19;;;27.38;24.95
22440;BME280;11387;51.612;7.210;2023-06-04T08:56:14;101323.94;;;29.76;22.41
22440;BME280;11387;51.612;7.210;2023-06-04T08:58:45;101311.69;;;29.97;21.73
22440;BME280;11387;51.612;7.210;2023-06-04T09:01:18;101306.81;;;29.45;22.28
22440;BME280;11387;51.612;7.210;2023-06-04T09:03:47;101301.63;;;29.33;22.26
22440;BME280;11387;51.612;7.210;2023-06-04T09:06:15;101304.53;;;29.85;21.74
22440;BME280;11387;51.612;7.210;2023-06-04T09:08:44;101303.06;;;28.72;22.02
22440;BME280;11387;51.612;7.210;2023-06-04T09:11:24;101301.09;;;26.79;24.98
22440;BME280;11387;51.612;7.210;2023-06-04T09:13:56;101298.88;;;29.19;22.67
22440;BME280;11387;51.612;7.210;2023-06-04T09:16:27;101301.06;;;27.69;23.41
22440;BME280;11387;51.612;7.210;2023-06-04T09:19:02;101300.69;;;28.10;22.94
22440;BME280;11387;51.612;7.210;2023-06-04T09:21:31;101301.97;;;29.39;21.70
22440;BME280;11387;51.612;7.210;2023-06-04T09:24:00;101304.03;;;29.97;20.89
22440;BME280;11387;51.612;7.210;2023-06-04T09:26:28;101311.16;;;30.98;20.62
22440;BME280;11387;51.612;7.210;2023-06-04T09:28:58;101304.97;;;32.22;18.53
22440;BME280;11387;51.612;7.210;2023-06-04T09:31:27;101310.91;;;30.86;19.01
22440;BME280;11387;51.612;7.210;2023-06-04T09:33:59;101308.13;;;30.82;19.48
22440;BME280;11387;51.612;7.210;2023-06-04T09:36:29;101307.38;;;30.78;19.41
22440;BME280;11387;51.612;7.210;2023-06-04T09:38:58;101316.66;;;31.73;18.72
22440;BME280;11387;51.612;7.210;2023-06-04T09:41:26;101308.19;;;30.75;19.78
22440;BME280;11387;51.612;7.210;2023-06-04T09:44:00;101301.88;;;31.32;19.86
22440;BME280;11387;51.612;7.210;2023-06-04T09:46:30;101315.28;;;31.24;19.59
22440;BME280;11387;51.612;7.210;2023-06-04T09:49:00;101313.84;;;30.75;18.86
22440;BME280;11387;51.612;7.210;2023-06-04T09:51:28;101310.06;;;30.03;18.67
22440;BME280;11387;51.612;7.210;2023-06-04T09:53:58;101307.22;;;32.07;18.12
22440;BME280;11387;51.612;7.210;2023-06-04T09:56:27;101308.53;;;31.48;18.58
22440;BME280;11387;51.612;7.210;2023-06-04T09:58:57;101309.53;;;29.63;20.36
22440;BME280;11387;51.612;7.210;2023-06-04T10:01:29;101302.03;;;30.46;18.84
22440;BME280;11387;51.612;7.210;2023-06-04T10:04:02;101307.03;;;32.64;18.07
22440;BME280;11387;51.612;7.210;2023-06-04T10:06:32;101297.69;;;32.87;16.54
22440;BME280;11387;51.612;7.210;2023-06-04T10:09:03;101303.38;;;33.27;16.50
22440;BME280;11387;51.612;7.210;2023-06-04T10:11:34;101291.84;;;31.54;17.43
22440;BME280;11387;51.612;7.210;2023-06-04T10:14:02;101298.44;;;31.17;17.21
22440;BME280;11387;51.612;7.210;2023-06-04T10:16:33;101299.28;;;31.44;17.00
22440;BME280;11387;51.612;7.210;2023-06-04T10:19:05;101292.13;;;31.63;16.32
22440;BME280;11387;51.612;7.210;2023-06-04T10:21:35;101290.19;;;30.62;17.56
22440;BME280;11387;51.612;7.210;2023-06-04T10:24:04;101291.78;;;31.31;17.95
22440;BME280;11387;51.612;7.210;2023-06-04T10:26:33;101291.63;;;31.41;18.18
22440;BME280;11387;51.612;7.210;2023-06-04T10:29:03;101293.41;;;30.19;18.41
22440;BME280;11387;51.612;7.210;2023-06-04T10:31:31;101287.00;;;28.58;19.16
22440;BME280;11387;51.612;7.210;2023-06-04T10:34:01;101293.66;;;29.10;19.52
22440;BME280;11387;51.612;7.210;2023-06-04T10:36:30;101285.41;;;29.59;19.43
22440;BME280;11387;51.612;7.210;2023-06-04T10:38:58;101284.94;;;30.19;19.97
22440;BME280;11387;51.612;7.210;2023-06-04T10:41:27;101292.94;;;30.69;19.22
22440;BME280;11387;51.612;7.210;2023-06-04T10:44:00;101294.31;;;31.22;17.70
22440;BME280;11387;51.612;7.210;2023-06-04T10:46:37;101288.06;;;33.21;16.42
22440;BME280;11387;51.612;7.210;2023-06-04T10:49:08;101300.72;;;31.26;18.03
22440;BME280;11387;51.612;7.210;2023-06-04T10:51:37;101287.63;;;30.74;19.36
22440;BME280;11387;51.612;7.210;2023-06-04T10:54:05;101292.25;;;31.26;17.99
22440;BME280;11387;51.612;7.210;2023-06-04T10:56:34;101294.09;;;31.66;17.48
22440;BME280;11387;51.612;7.210;2023-06-04T10:59:12;101281.13;;;33.41;16.25
22440;BME280;11387;51.612;7.210;2023-06-04T11:01:41;101290.75;;;34.29;14.50
22440;BME280;11387;51.612;7.210;2023-06-04T11:04:19;101284.94;;;35.48;15.09
22440;BME280;11387;51.612;7.210;2023-06-04T11:07:01;101288.44;;;36.85;12.70
22440;BME280;11387;51.612;7.210;2023-06-04T11:09:36;101280.53;;;33.66;15.21
22440;BME280;11387;51.612;7.210;2023-06-04T11:12:05;101288.34;;;33.46;15.96
22440;BME280;11387;51.612;7.210;2023-06-04T11:14:33;101277.09;;;31.70;17.72
22440;BME280;11387;51.612;7.210;2023-06-04T11:17:11;101276.97;;;32.70;16.76
22440;BME280;11387;51.612;7.210;2023-06-04T11:19:40;101267.34;;;32.21;16.92
22440;BME280;11387;51.612;7.210;2023-06-04T11:22:10;101273.09;;;32.61;17.10
22440;BME280;11387;51.612;7.210;2023-06-04T11:24:39;101277.22;;;31.59;17.21
22440;BME280;11387;51.612;7.210;2023-06-04T11:27:07;101271.44;;;33.75;16.01
22440;BME280;11387;51.612;7.210;2023-06-04T11:29:48;101266.97;;;35.38;14.76
22440;BME280;11387;51.612;7.210;2023-06-04T11:32:23;101270.31;;;33.89;14.82
22440;BME280;11387;51.612;7.210;2023-06-04T11:35:02;101268.50;;;32.47;15.96
22440;BME280;11387;51.612;7.210;2023-06-04T11:37:32;101278.78;;;31.03;16.00
22440;BME280;11387;51.612;7.210;2023-06-04T11:40:01;101266.50;;;33.79;14.29
22440;BME280;11387;51.612;7.210;2023-06-04T11:42:32;101276.88;;;33.13;14.78
22440;BME280;11387;51.612;7.210;2023-06-04T11:45:03;101277.69;;;32.31;15.70
22440;BME280;11387;51.612;7.210;2023-06-04T11:47:32;101258.84;;;33.60;15.43
22440;BME280;11387;51.612;7.210;2023-06-04T11:50:00;101263.41;;;31.38;16.52
22440;BME280;11387;51.612;7.210;2023-06-04T11:52:30;101251.59;;;30.86;16.88
22440;BME280;11387;51.612;7.210;2023-06-04T11:54:59;101260.22;;;30.30;17.88
22440;BME280;11387;51.612;7.210;2023-06-04T11:57:28;101259.25;;;29.51;18.66
22440;BME280;11387;51.612;7.210;2023-06-04T11:59:57;101255.56;;;32.46;16.56
22440;BME280;11387;51.612;7.210;2023-06-04T12:02:26;101249.22;;;33.90;15.59
22440;BME280;11387;51.612;7.210;2023-06-04T12:04:55;101251.34;;;35.68;14.01
22440;BME280;11387;51.612;7.210;2023-06-04T12:07:23;101240.13;;;36.47;13.32
22440;BME280;11387;51.612;7.210;2023-06-04T12:10:04;101252.72;;;38.50;12.49
22440;BME280;11387;51.612;7.210;2023-06-04T12:12:35;101247.44;;;36.91;12.49
22440;BME280;11387;51.612;7.210;2023-06-04T12:15:04;101236.25;;;37.28;12.98
22440;BME280;11387;51.612;7.210;2023-06-04T12:17:33;101238.47;;;35.64;14.81
22440;BME280;11387;51.612;7.210;2023-06-04T12:20:02;101240.66;;;34.06;14.44
22440;BME280;11387;51.612;7.210;2023-06-04T12:22:34;101240.09;;;33.30;14.61
22440;BME280;11387;51.612;7.210;2023-06-04T12:25:23;101234.44;;;33.46;15.97
22440;BME280;11387;51.612;7.210;2023-06-04T12:27:52;101244.84;;;32.10;16.10
22440;BME280;11387;51.612;7.210;2023-06-04T12:30:23;101231.03;;;32.59;16.08
22440;BME280;11387;51.612;7.210;2023-06-04T12:32:51;101235.81;;;32.19;15.88
22440;BME280;11387;51.612;7.210;2023-06-04T12:35:20;101243.63;;;31.38;16.76
22440;BME280;11387;51.612;7.210;2023-06-04T12:37:48;101232.09;;;32.45;16.63
22440;BME280;11387;51.612;7.210;2023-06-04T12:40:18;101237.97;;;31.88;16.43
22440;BME280;11387;51.612;7.210;2023-06-04T12:42:47;101233.16;;;33.83;14.66
22440;BME280;11387;51.612;7.210;2023-06-04T12:45:18;101236.56;;;31.76;16.21
22440;BME280;11387;51.612;7.210;2023-06-04T12:47:46;101241.03;;;33.92;15.12
22440;BME280;11387;51.612;7.210;2023-06-04T12:50:15;101234.94;;;34.38;14.53
22440;BME280;11387;51.612;7.210;2023-06-04T12:52:48;101240.16;;;33.78;15.52
22440;BME280;11387;51.612;7.210;2023-06-04T12:55:32;101228.75;;;33.46;15.22
22440;BME280;11387;51.612;7.210;2023-06-04T12:58:01;101219.41;;;32.54;15.51
22440;BME280;11387;51.612;7.210;2023-06-04T13:00:31;101236.75;;;31.08;16.95
22440;BME280;11387;51.612;7.210;2023-06-04T13:02:59;101229.56;;;31.00;16.46
22440;BME280;11387;51.612;7.210;2023-06-04T13:05:28;101223.03;;;32.54;15.20